Time,TemperatureF,DewpointF,PressureIn,WindDirection,WindDirectionDegrees,WindSpeedMPH,WindSpeedGustMPH,Humidity,HourlyPrecipIn,Conditions,Clouds,dailyrainin,SoftwareType,DateUTC
2013-05-08 00:03:00,51.9,43.5,29.91,South,184,1.0,5.0,73,0.00,,,0.00,Wunderground v.1.13,2013-05-08 07:03:00,
2013-05-08 00:08:00,51.9,43.5,29.91,South,179,1.0,8.0,73,0.00,,,0.00,Wunderground v.1.13,2013-05-08 07:08:00,
2013-05-08 00:14:00,51.9,43.5,29.91,SSE,155,2.0,8.0,73,0.00,,,0.00,Wunderground v.1.13,2013-05-08 07:14:00,
2013-05-08 00:20:00,51.7,43.3,29.89,SSE,165,2.0,8.0,73,0.00,,,0.00,Wunderground v.1.13,2013-05-08 07:20:00,
2013-05-08 00:25:00,51.7,43.3,29.89,SSE,161,3.0,8.0,73,0.00,,,0.00,Wunderground v.1.13,2013-05-08 07:25:00,
2013-05-08 00:30:00,51.7,43.3,29.89,SSW,202,1.0,8.0,73,0.00,,,0.00,Wunderground v.1.13,2013-05-08 07:30:00,
2013-05-08 00:35:00,51.6,43.2,29.89,South,179,3.0,8.0,73,0.00,,,0.00,Wunderground v.1.13,2013-05-08 07:35:00,
2013-05-08 00:40:00,51.6,43.2,29.89,SSE,161,10.0,10.0,73,0.00,,,0.00,Wunderground v.1.13,2013-05-08 07:40:00,
2013-05-08 00:46:00,51.6,43.2,29.89,South,179,0.0,8.0,73,0.00,,,0.00,Wunderground v.1.13,2013-05-08 07:46:00,
2013-05-08 00:51:00,51.6,43.2,29.89,SW,233,0.0,8.0,73,0.00,,,0.00,Wunderground v.1.13,2013-05-08 07:51:00,
2013-05-08 00:56:00,51.6,43.2,29.89,SSE,167,2.0,8.0,73,0.00,,,0.00,Wunderground v.1.13,2013-05-08 07:56:00,
2013-05-08 01:01:00,51.6,43.2,29.89,South,178,3.0,8.0,73,0.00,,,0.00,Wunderground v.1.13,2013-05-08 08:01:00,
2013-05-08 01:07:00,51.6,43.2,29.89,SSW,198,3.0,6.0,73,0.00,,,0.00,Wunderground v.1.13,2013-05-08 08:07:00,
2013-05-08 01:12:00,51.6,43.2,29.89,South,174,2.0,6.0,73,0.00,,,0.00,Wunderground v.1.13,2013-05-08 08:12:00,
2013-05-08 01:17:00,51.6,43.2,29.88,SSW,198,2.0,6.0,73,0.00,,,0.00,Wunderground v.1.13,2013-05-08 08:17:00,
2013-05-08 01:22:00,51.4,43.0,29.88,South,174,7.0,7.0,73,0.00,,,0.00,Wunderground v.1.13,2013-05-08 08:22:00,
2013-05-08 01:28:00,51.4,43.0,29.88,SW,217,3.0,6.0,73,0.00,,,0.00,Wunderground v.1.13,2013-05-08 08:28:00,
2013-05-08 01:33:00,51.4,43.0,29.89,SSW,196,2.0,7.0,73,0.00,,,0.00,Wunderground v.1.13,2013-05-08 08:33:00,
2013-05-08 01:38:00,51.4,43.0,29.89,SSW,210,3.0,6.0,73,0.00,,,0.00,Wunderground v.1.13,2013-05-08 08:38:00,
2013-05-08 01:43:00,51.4,43.0,29.89,South,188,3.0,6.0,73,0.00,,,0.00,Wunderground v.1.13,2013-05-08 08:43:00,
2013-05-08 01:48:00,51.4,43.0,29.89,South,174,3.0,6.0,73,0.00,,,0.00,Wunderground v.1.13,2013-05-08 08:48:00,
2013-05-08 01:54:00,51.4,44.4,29.89,SSW,193,3.0,6.0,77,0.00,,,0.00,Wunderground v.1.13,2013-05-08 08:54:00,
2013-05-08 01:59:00,51.4,44.4,29.89,SSW,200,3.0,6.0,77,0.00,,,0.00,Wunderground v.1.13,2013-05-08 08:59:00,
2013-05-08 02:04:00,51.4,44.4,29.89,SSW,198,2.0,6.0,77,0.00,,,0.00,Wunderground v.1.13,2013-05-08 09:04:00,
2013-05-08 02:10:00,50.7,43.8,29.89,SSW,192,2.0,6.0,77,0.00,,,0.00,Wunderground v.1.13,2013-05-08 09:10:00,
2013-05-08 02:15:00,50.5,43.6,29.92,South,191,1.0,6.0,77,0.00,,,0.00,Wunderground v.1.13,2013-05-08 09:15:00,
2013-05-08 02:20:00,50.5,43.6,29.92,South,191,2.0,2.0,77,0.00,,,0.00,Wunderground v.1.13,2013-05-08 09:20:00,
2013-05-08 02:25:00,50.5,43.6,29.92,SSW,196,2.0,6.0,77,0.00,,,0.00,Wunderground v.1.13,2013-05-08 09:25:00,
2013-05-08 02:31:00,50.5,43.6,29.91,South,184,1.0,6.0,77,0.00,,,0.00,Wunderground v.1.13,2013-05-08 09:31:00,
2013-05-08 02:36:00,50.5,43.6,29.91,South,179,1.0,6.0,77,0.00,,,0.00,Wunderground v.1.13,2013-05-08 09:36:00,
2013-05-08 02:42:00,50.5,43.6,29.91,South,179,3.0,6.0,77,0.00,,,0.00,Wunderground v.1.13,2013-05-08 09:42:00,
2013-05-08 02:47:00,50.4,43.1,29.93,South,176,3.0,6.0,76,0.00,,,0.00,Wunderground v.1.13,2013-05-08 09:47:00,
2013-05-08 02:52:00,50.2,42.9,29.93,SSE,152,0.0,6.0,76,0.00,,,0.00,Wunderground v.1.13,2013-05-08 09:52:00,
2013-05-08 02:57:00,50.2,42.9,29.93,SSW,212,2.0,6.0,76,0.00,,,0.00,Wunderground v.1.13,2013-05-08 09:57:00,
2013-05-08 03:03:00,50.2,42.9,29.93,South,171,3.0,6.0,76,0.00,,,0.00,Wunderground v.1.13,2013-05-08 10:03:00,
2013-05-08 03:08:00,50.2,42.9,29.93,South,191,3.0,6.0,76,0.00,,,0.00,Wunderground v.1.13,2013-05-08 10:08:00,
2013-05-08 03:14:00,50.2,42.9,29.93,South,178,3.0,6.0,76,0.00,,,0.00,Wunderground v.1.13,2013-05-08 10:14:00,
2013-05-08 03:19:00,50.1,42.8,29.90,South,182,3.0,6.0,76,0.00,,,0.00,Wunderground v.1.13,2013-05-08 10:19:00,
2013-05-08 03:24:00,49.9,42.6,29.90,South,185,5.0,6.0,76,0.00,,,0.00,Wunderground v.1.13,2013-05-08 10:24:00,
2013-05-08 03:29:00,49.9,42.6,29.90,South,181,3.0,6.0,76,0.00,,,0.00,Wunderground v.1.13,2013-05-08 10:29:00,
2013-05-08 03:34:00,49.9,42.6,29.90,South,178,4.0,6.0,76,0.00,,,0.00,Wunderground v.1.13,2013-05-08 10:34:00,
2013-05-08 03:40:00,49.9,42.6,29.90,SSE,154,4.0,4.0,76,0.00,,,0.00,Wunderground v.1.13,2013-05-08 10:40:00,
2013-05-08 03:45:00,49.9,42.6,29.90,South,176,3.0,3.0,76,0.00,,,0.00,Wunderground v.1.13,2013-05-08 10:45:00,
2013-05-08 03:50:00,49.9,42.6,29.90,South,176,3.0,3.0,76,0.00,,,0.00,Wunderground v.1.13,2013-05-08 10:50:00,
2013-05-08 03:55:00,49.9,42.6,29.90,SSW,210,2.0,6.0,76,0.00,,,0.00,Wunderground v.1.13,2013-05-08 10:55:00,
2013-05-08 04:00:00,49.9,42.6,29.90,South,181,2.0,6.0,76,0.00,,,0.00,Wunderground v.1.13,2013-05-08 11:00:00,
2013-05-08 04:05:00,49.9,42.6,29.90,South,176,2.0,5.0,76,0.00,,,0.00,Wunderground v.1.13,2013-05-08 11:05:00,
2013-05-08 04:11:00,49.9,42.6,29.90,SSE,165,3.0,5.0,76,0.00,,,0.00,Wunderground v.1.13,2013-05-08 11:11:00,
2013-05-08 04:17:00,49.9,42.6,29.93,SSW,206,4.0,7.0,76,0.00,,,0.00,Wunderground v.1.13,2013-05-08 11:17:00,
2013-05-08 04:22:00,49.9,42.6,29.93,South,184,3.0,5.0,76,0.00,,,0.00,Wunderground v.1.13,2013-05-08 11:22:00,
2013-05-08 04:27:00,49.9,42.6,29.93,South,178,3.0,5.0,76,0.00,,,0.00,Wunderground v.1.13,2013-05-08 11:27:00,
2013-05-08 04:32:00,49.9,42.6,29.93,SSW,198,3.0,5.0,76,0.00,,,0.00,Wunderground v.1.13,2013-05-08 11:32:00,
2013-05-08 04:38:00,49.9,42.6,29.93,South,178,2.0,5.0,76,0.00,,,0.00,Wunderground v.1.13,2013-05-08 11:38:00,
2013-05-08 04:44:00,49.9,42.6,29.93,South,189,2.0,5.0,76,0.00,,,0.00,Wunderground v.1.13,2013-05-08 11:44:00,
2013-05-08 04:49:00,49.9,42.6,29.94,SSE,155,1.0,5.0,76,0.00,,,0.00,Wunderground v.1.13,2013-05-08 11:49:00,
2013-05-08 04:54:00,49.9,42.6,29.94,South,178,1.0,5.0,76,0.00,,,0.00,Wunderground v.1.13,2013-05-08 11:54:00,
2013-05-08 04:59:00,49.9,42.6,29.94,South,179,2.0,5.0,76,0.00,,,0.00,Wunderground v.1.13,2013-05-08 11:59:00,
2013-05-08 05:04:00,49.9,42.6,29.94,SSW,200,1.0,5.0,76,0.00,,,0.00,Wunderground v.1.13,2013-05-08 12:04:00,
2013-05-08 05:10:00,49.9,43.0,29.94,South,178,1.0,3.0,77,0.00,,,0.00,Wunderground v.1.13,2013-05-08 12:10:00,
2013-05-08 05:15:00,49.9,43.0,29.94,SSW,202,1.0,3.0,77,0.00,,,0.00,Wunderground v.1.13,2013-05-08 12:15:00,
2013-05-08 05:20:00,49.9,43.0,29.94,South,169,1.0,1.0,77,0.00,,,0.00,Wunderground v.1.13,2013-05-08 12:20:00,
2013-05-08 05:25:00,49.9,43.0,29.94,SSE,167,1.0,1.0,77,0.00,,,0.00,Wunderground v.1.13,2013-05-08 12:25:00,
2013-05-08 05:30:00,49.9,43.0,29.94,South,189,1.0,3.0,77,0.00,,,0.00,Wunderground v.1.13,2013-05-08 12:30:00,
2013-05-08 05:35:00,48.9,42.0,29.94,SSW,193,1.0,3.0,77,0.00,,,0.00,Wunderground v.1.13,2013-05-08 12:35:00,
2013-05-08 05:41:00,48.9,42.0,29.94,South,188,1.0,3.0,77,0.00,,,0.00,Wunderground v.1.13,2013-05-08 12:41:00,
2013-05-08 05:46:00,48.9,42.0,29.95,South,182,1.0,3.0,77,0.00,,,0.00,Wunderground v.1.13,2013-05-08 12:46:00,
2013-05-08 05:51:00,48.9,42.0,29.95,SE,141,0.0,3.0,77,0.00,,,0.00,Wunderground v.1.13,2013-05-08 12:51:00,
2013-05-08 05:56:00,48.9,42.0,29.95,SSE,162,0.0,3.0,77,0.00,,,0.00,Wunderground v.1.13,2013-05-08 12:56:00,
2013-05-08 06:01:00,48.9,42.0,29.96,SSE,161,0.0,3.0,77,0.00,,,0.00,Wunderground v.1.13,2013-05-08 13:01:00,
2013-05-08 06:07:00,48.9,42.0,29.96,SSE,164,1.0,1.0,77,0.00,,,0.00,Wunderground v.1.13,2013-05-08 13:07:00,
2013-05-08 06:12:00,48.9,43.0,29.96,SSE,162,0.0,1.0,80,0.00,,,0.00,Wunderground v.1.13,2013-05-08 13:12:00,
2013-05-08 06:17:00,48.9,43.0,29.93,SSE,165,0.0,1.0,80,0.00,,,0.00,Wunderground v.1.13,2013-05-08 13:17:00,
2013-05-08 06:23:00,48.9,43.3,29.93,South,189,1.0,2.0,81,0.00,,,0.00,Wunderground v.1.13,2013-05-08 13:23:00,
2013-05-08 06:28:00,48.9,43.3,29.93,South,178,1.0,2.0,81,0.00,,,0.00,Wunderground v.1.13,2013-05-08 13:28:00,
2013-05-08 06:33:00,48.9,43.3,29.93,SSW,192,2.0,7.0,81,0.00,,,0.00,Wunderground v.1.13,2013-05-08 13:33:00,
2013-05-08 06:38:00,48.9,43.3,29.93,SSE,167,3.0,6.0,81,0.00,,,0.00,Wunderground v.1.13,2013-05-08 13:38:00,
2013-05-08 06:43:00,48.9,43.3,29.93,South,175,3.0,3.0,81,0.00,,,0.00,Wunderground v.1.13,2013-05-08 13:43:00,
2013-05-08 06:49:00,50.1,44.5,29.93,South,189,2.0,2.0,81,0.00,,,0.00,Wunderground v.1.13,2013-05-08 13:49:00,
2013-05-08 06:54:00,50.1,44.5,29.93,SSW,196,1.0,2.0,81,0.00,,,0.00,Wunderground v.1.13,2013-05-08 13:54:00,
2013-05-08 06:59:00,51.0,45.4,29.93,SW,219,1.0,5.0,81,0.00,,,0.00,Wunderground v.1.13,2013-05-08 13:59:00,
2013-05-08 07:04:00,51.1,45.5,29.93,SSW,210,3.0,7.0,81,0.00,,,0.00,Wunderground v.1.13,2013-05-08 14:04:00,
2013-05-08 07:10:00,51.7,46.1,29.93,South,189,1.0,5.0,81,0.00,,,0.00,Wunderground v.1.13,2013-05-08 14:10:00,
2013-05-08 07:15:00,51.7,46.1,29.93,South,178,2.0,5.0,81,0.00,,,0.00,Wunderground v.1.13,2013-05-08 14:15:00,
2013-05-08 07:20:00,51.7,46.1,29.93,SSE,162,1.0,5.0,81,0.00,,,0.00,Wunderground v.1.13,2013-05-08 14:20:00,
2013-05-08 07:25:00,51.7,46.1,29.93,SSW,198,3.0,5.0,81,0.00,,,0.00,Wunderground v.1.13,2013-05-08 14:25:00,
2013-05-08 07:31:00,51.7,46.1,29.94,SW,229,1.0,5.0,81,0.00,,,0.00,Wunderground v.1.13,2013-05-08 14:31:00,
2013-05-08 07:36:00,51.7,46.1,29.94,South,179,0.0,5.0,81,0.00,,,0.00,Wunderground v.1.13,2013-05-08 14:36:00,
2013-05-08 07:41:00,51.7,46.1,29.94,SSW,205,1.0,5.0,81,0.00,,,0.00,Wunderground v.1.13,2013-05-08 14:41:00,
2013-05-08 07:46:00,51.7,46.1,29.94,SSE,162,3.0,5.0,81,0.00,,,0.00,Wunderground v.1.13,2013-05-08 14:46:00,
2013-05-08 07:51:00,56.5,50.7,29.94,WSW,241,0.0,5.0,81,0.00,,,0.00,Wunderground v.1.13,2013-05-08 14:51:00,
2013-05-08 07:56:00,57.0,51.2,29.94,SSW,200,2.0,3.0,81,0.00,,,0.00,Wunderground v.1.13,2013-05-08 14:56:00,
2013-05-08 08:01:00,57.0,51.2,29.92,SW,219,3.0,3.0,81,0.00,,,0.00,Wunderground v.1.13,2013-05-08 15:01:00,
2013-05-08 08:07:00,58.0,52.2,29.92,SW,219,3.0,6.0,81,0.00,,,0.00,Wunderground v.1.13,2013-05-08 15:07:00,
2013-05-08 08:12:00,58.6,52.8,29.92,SSW,203,3.0,6.0,81,0.00,,,0.00,Wunderground v.1.13,2013-05-08 15:12:00,
2013-05-08 08:17:00,58.6,52.8,29.92,West,263,5.0,6.0,81,0.00,,,0.00,Wunderground v.1.13,2013-05-08 15:17:00,
2013-05-08 08:22:00,58.6,52.8,29.92,SSW,203,4.0,6.0,81,0.00,,,0.00,Wunderground v.1.13,2013-05-08 15:22:00,
2013-05-08 08:27:00,58.6,52.8,29.92,SW,232,4.0,6.0,81,0.00,,,0.00,Wunderground v.1.13,2013-05-08 15:27:00,
2013-05-08 08:32:00,58.6,52.8,29.93,SSW,212,6.0,6.0,81,0.00,,,0.00,Wunderground v.1.13,2013-05-08 15:32:00,
2013-05-08 08:38:00,60.1,54.2,29.93,SSW,202,5.0,6.0,81,0.00,,,0.00,Wunderground v.1.13,2013-05-08 15:38:00,
2013-05-08 08:43:00,60.5,54.6,29.93,South,188,4.0,6.0,81,0.00,,,0.00,Wunderground v.1.13,2013-05-08 15:43:00,
2013-05-08 08:48:00,60.5,54.6,29.92,SSW,210,5.0,8.0,81,0.00,,,0.00,Wunderground v.1.13,2013-05-08 15:48:00,
2013-05-08 08:53:00,60.5,54.6,29.92,WSW,239,1.0,8.0,81,0.00,,,0.00,Wunderground v.1.13,2013-05-08 15:53:00,
2013-05-08 08:58:00,61.3,55.4,29.92,WSW,241,2.0,6.0,81,0.00,,,0.00,Wunderground v.1.13,2013-05-08 15:58:00,
2013-05-08 09:03:00,61.3,55.4,29.92,WSW,240,0.0,6.0,81,0.00,,,0.00,Wunderground v.1.13,2013-05-08 16:03:00,
2013-05-08 09:09:00,61.3,55.4,29.92,WSW,244,6.0,8.0,81,0.00,,,0.00,Wunderground v.1.13,2013-05-08 16:09:00,
2013-05-08 09:15:00,61.3,55.4,29.92,WSW,240,0.0,8.0,81,0.00,,,0.00,Wunderground v.1.13,2013-05-08 16:15:00,
2013-05-08 09:20:00,61.3,55.4,29.92,WSW,250,5.0,8.0,81,0.00,,,0.00,Wunderground v.1.13,2013-05-08 16:20:00,
2013-05-08 09:25:00,61.3,55.4,29.92,West,267,6.0,8.0,81,0.00,,,0.00,Wunderground v.1.13,2013-05-08 16:25:00,
2013-05-08 09:31:00,61.3,55.4,29.92,West,267,7.0,8.0,81,0.00,,,0.00,Wunderground v.1.13,2013-05-08 16:31:00,
2013-05-08 09:37:00,61.3,55.4,29.92,WSW,246,4.0,8.0,81,0.00,,,0.00,Wunderground v.1.13,2013-05-08 16:37:00,
2013-05-08 09:42:00,61.3,55.4,29.92,SSW,208,2.0,8.0,81,0.00,,,0.00,Wunderground v.1.13,2013-05-08 16:42:00,
2013-05-08 09:47:00,61.3,55.4,29.91,SE,144,4.0,8.0,81,0.00,,,0.00,Wunderground v.1.13,2013-05-08 16:47:00,
2013-05-08 09:53:00,61.3,55.4,29.91,SSE,160,2.0,8.0,81,0.00,,,0.00,Wunderground v.1.13,2013-05-08 16:53:00,
2013-05-08 09:59:00,61.3,55.4,29.91,SSE,160,2.0,8.0,81,0.00,,,0.00,Wunderground v.1.13,2013-05-08 16:59:00,
2013-05-08 10:04:00,61.3,55.4,29.91,NW,320,0.0,8.0,81,0.00,,,0.00,Wunderground v.1.13,2013-05-08 17:04:00,
2013-05-08 10:10:00,61.3,55.4,29.91,NW,320,2.0,2.0,81,0.00,,,0.00,Wunderground v.1.13,2013-05-08 17:10:00,
2013-05-08 10:15:00,61.3,55.4,29.93,NW,320,2.0,2.0,81,0.00,,,0.00,Wunderground v.1.13,2013-05-08 17:15:00,
2013-05-08 10:20:00,-999.9,-99.9,29.93,North,32767,-999.0,2.0,255,-99.99,,,0.00,Wunderground v.1.13,2013-05-08 17:20:00,
2013-05-08 10:26:00,-999.9,-99.9,29.93,North,32767,-999.0,2.0,255,-99.99,,,0.00,Wunderground v.1.13,2013-05-08 17:26:00,
2013-05-08 10:31:00,-999.9,-99.9,29.96,North,32767,-999.0,2.0,255,-99.99,,,0.00,Wunderground v.1.13,2013-05-08 17:31:00,
2013-05-08 10:36:00,-999.9,-99.9,29.96,WNW,288,1.0,2.0,255,0.00,,,0.00,Wunderground v.1.13,2013-05-08 17:36:00,
2013-05-08 10:42:00,-999.9,-99.9,29.96,West,260,4.0,5.0,255,0.00,,,0.00,Wunderground v.1.13,2013-05-08 17:42:00,
2013-05-08 10:48:00,-999.9,-99.9,29.95,NW,305,2.0,3.0,255,0.00,,,0.00,Wunderground v.1.13,2013-05-08 17:48:00,
2013-05-08 10:53:00,-999.9,-99.9,29.95,NW,305,2.0,2.0,255,0.00,,,0.00,Wunderground v.1.13,2013-05-08 17:53:00,
2013-05-08 10:58:00,-999.9,-99.9,29.95,North,32767,-999.0,2.0,255,-99.99,,,0.00,Wunderground v.1.13,2013-05-08 17:58:00,
2013-05-08 11:03:00,-999.9,-99.9,29.95,North,32767,-999.0,2.0,255,-99.99,,,0.00,Wunderground v.1.13,2013-05-08 18:03:00,
2013-05-08 11:09:00,-999.9,-99.9,29.95,North,32767,-999.0,0.0,255,-99.99,,,0.00,Wunderground v.1.13,2013-05-08 18:09:00,
2013-05-08 11:14:00,-999.9,-99.9,29.95,NW,316,10.0,10.0,255,0.00,,,0.00,Wunderground v.1.13,2013-05-08 18:14:00,
2013-05-08 11:20:00,-999.9,-99.9,29.95,WNW,289,7.0,7.0,255,0.00,,,0.00,Wunderground v.1.13,2013-05-08 18:20:00,
2013-05-08 11:26:00,-999.9,-99.9,29.95,West,271,2.0,2.0,255,0.00,,,0.00,Wunderground v.1.13,2013-05-08 18:26:00,
2013-05-08 11:31:00,-999.9,-99.9,29.95,NNW,337,5.0,5.0,255,0.00,,,0.00,Wunderground v.1.13,2013-05-08 18:31:00,
2013-05-08 11:36:00,-999.9,-99.9,29.95,West,260,1.0,1.0,255,0.00,,,0.00,Wunderground v.1.13,2013-05-08 18:36:00,
2013-05-08 11:41:00,69.9,-99.9,29.95,NW,325,6.0,6.0,255,0.00,,,0.00,Wunderground v.1.13,2013-05-08 18:41:00,
2013-05-08 11:46:00,69.9,-99.9,29.90,WSW,251,4.0,4.0,255,0.00,,,0.00,Wunderground v.1.13,2013-05-08 18:46:00,
2013-05-08 11:52:00,69.9,-99.9,29.90,NW,315,1.0,1.0,255,0.00,,,0.00,Wunderground v.1.13,2013-05-08 18:52:00,
2013-05-08 11:57:00,69.9,40.2,29.90,NW,315,1.0,2.0,34,0.00,,,0.00,Wunderground v.1.13,2013-05-08 18:57:00,
2013-05-08 12:02:00,69.9,40.2,29.90,NW,319,2.0,6.0,34,0.00,,,0.00,Wunderground v.1.13,2013-05-08 19:02:00,
2013-05-08 12:08:00,70.1,40.4,29.90,WNW,292,4.0,6.0,34,0.00,,,0.00,Wunderground v.1.13,2013-05-08 19:08:00,
2013-05-08 12:13:00,70.3,40.6,29.90,WSW,244,1.0,6.0,34,0.00,,,0.00,Wunderground v.1.13,2013-05-08 19:13:00,
2013-05-08 12:18:00,70.3,40.6,29.89,SSE,154,1.0,3.0,34,0.00,,,0.00,Wunderground v.1.13,2013-05-08 19:18:00,
2013-05-08 12:23:00,71.1,41.3,29.89,SSE,167,3.0,3.0,34,0.00,,,0.00,Wunderground v.1.13,2013-05-08 19:23:00,
2013-05-08 12:28:00,71.1,41.3,29.89,South,184,0.0,3.0,34,0.00,,,0.00,Wunderground v.1.13,2013-05-08 19:28:00,
2013-05-08 12:33:00,71.1,41.3,29.89,SSW,200,2.0,3.0,34,0.00,,,0.00,Wunderground v.1.13,2013-05-08 19:33:00,
2013-05-08 12:39:00,71.1,41.3,29.89,West,268,2.0,7.0,34,0.00,,,0.00,Wunderground v.1.13,2013-05-08 19:39:00,
2013-05-08 12:44:00,72.3,42.3,29.89,West,268,2.0,5.0,34,0.00,,,0.00,Wunderground v.1.13,2013-05-08 19:44:00,
2013-05-08 12:49:00,72.3,42.3,29.89,WNW,299,3.0,5.0,34,0.00,,,0.00,Wunderground v.1.13,2013-05-08 19:49:00,
2013-05-08 12:54:00,72.3,42.3,29.89,WNW,287,6.0,6.0,34,0.00,,,0.00,Wunderground v.1.13,2013-05-08 19:54:00,
2013-05-08 12:59:00,72.3,42.3,29.89,WSW,247,3.0,6.0,34,0.00,,,0.00,Wunderground v.1.13,2013-05-08 19:59:00,
2013-05-08 13:04:00,72.3,42.3,29.88,NNW,332,4.0,4.0,34,0.00,,,0.00,Wunderground v.1.13,2013-05-08 20:04:00,
2013-05-08 13:10:00,72.3,42.3,29.88,NNW,332,0.0,6.0,34,0.00,,,0.00,Wunderground v.1.13,2013-05-08 20:10:00,
2013-05-08 13:15:00,72.3,42.3,29.88,SSW,213,3.0,6.0,34,0.00,,,0.00,Wunderground v.1.13,2013-05-08 20:15:00,
2013-05-08 13:20:00,72.3,42.3,29.88,WSW,244,2.0,6.0,34,0.00,,,0.00,Wunderground v.1.13,2013-05-08 20:20:00,
2013-05-08 13:26:00,71.6,41.7,29.88,SSE,165,6.0,6.0,34,0.00,,,0.00,Wunderground v.1.13,2013-05-08 20:26:00,
2013-05-08 13:31:00,71.6,41.7,29.88,WSW,251,7.0,7.0,34,0.00,,,0.00,Wunderground v.1.13,2013-05-08 20:31:00,
2013-05-08 13:37:00,71.6,41.7,29.88,ENE,66,3.0,6.0,34,0.00,,,0.00,Wunderground v.1.13,2013-05-08 20:37:00,
2013-05-08 13:42:00,71.6,41.7,29.88,NW,320,3.0,6.0,34,0.00,,,0.00,Wunderground v.1.13,2013-05-08 20:42:00,
2013-05-08 13:47:00,71.6,41.7,29.88,SW,230,1.0,6.0,34,0.00,,,0.00,Wunderground v.1.13,2013-05-08 20:47:00,
2013-05-08 13:52:00,71.6,41.7,29.88,SSE,165,3.0,6.0,34,0.00,,,0.00,Wunderground v.1.13,2013-05-08 20:52:00,
2013-05-08 13:57:00,71.6,41.7,29.88,NE,34,2.0,11.0,34,0.00,,,0.00,Wunderground v.1.13,2013-05-08 20:57:00,
2013-05-08 14:03:00,71.6,41.7,29.88,SSE,160,6.0,6.0,34,0.00,,,0.00,Wunderground v.1.13,2013-05-08 21:03:00,
2013-05-08 14:09:00,71.6,41.7,29.88,SE,145,8.0,11.0,34,0.00,,,0.00,Wunderground v.1.13,2013-05-08 21:09:00,
2013-05-08 14:14:00,71.6,41.7,29.88,South,179,0.0,11.0,34,0.00,,,0.00,Wunderground v.1.13,2013-05-08 21:14:00,
2013-05-08 14:19:00,71.6,41.7,29.88,SSW,205,0.0,11.0,34,0.00,,,0.00,Wunderground v.1.13,2013-05-08 21:19:00,
2013-05-08 14:25:00,71.6,41.7,29.88,WSW,247,5.0,11.0,34,0.00,,,0.00,Wunderground v.1.13,2013-05-08 21:25:00,
2013-05-08 14:31:00,71.6,41.7,29.87,SSE,162,2.0,11.0,34,0.00,,,0.00,Wunderground v.1.13,2013-05-08 21:31:00,
2013-05-08 14:36:00,71.6,41.7,29.87,WNW,301,8.0,11.0,34,0.00,,,0.00,Wunderground v.1.13,2013-05-08 21:36:00,
2013-05-08 14:41:00,71.6,38.5,29.87,SSE,151,2.0,11.0,30,0.00,,,0.00,Wunderground v.1.13,2013-05-08 21:41:00,
2013-05-08 14:47:00,71.6,38.5,29.87,WSW,240,12.0,12.0,30,0.00,,,0.00,Wunderground v.1.13,2013-05-08 21:47:00,
2013-05-08 14:53:00,71.6,38.5,29.87,South,178,6.0,11.0,30,0.00,,,0.00,Wunderground v.1.13,2013-05-08 21:53:00,
2013-05-08 14:58:00,71.6,38.5,29.87,South,175,2.0,11.0,30,0.00,,,0.00,Wunderground v.1.13,2013-05-08 21:58:00,
2013-05-08 15:03:00,71.6,38.5,29.87,South,186,1.0,11.0,30,0.00,,,0.00,Wunderground v.1.13,2013-05-08 22:03:00,
2013-05-08 15:08:00,71.6,38.5,29.87,South,186,1.0,7.0,30,0.00,,,0.00,Wunderground v.1.13,2013-05-08 22:08:00,
2013-05-08 15:13:00,71.6,38.5,29.87,WSW,257,7.0,7.0,30,0.00,,,0.00,Wunderground v.1.13,2013-05-08 22:13:00,
2013-05-08 15:19:00,71.6,38.5,29.87,WSW,257,7.0,7.0,30,0.00,,,0.00,Wunderground v.1.13,2013-05-08 22:19:00,
2013-05-08 15:25:00,-999.9,-99.9,29.87,North,32767,-999.0,7.0,255,-99.99,,,0.00,Wunderground v.1.13,2013-05-08 22:25:00,
2013-05-08 15:30:00,-999.9,-99.9,29.91,North,32767,-999.0,7.0,255,-99.99,,,0.00,Wunderground v.1.13,2013-05-08 22:30:00,
2013-05-08 15:35:00,-999.9,-99.9,29.91,North,32767,-999.0,7.0,255,-99.99,,,0.00,Wunderground v.1.13,2013-05-08 22:35:00,
2013-05-08 15:40:00,-999.9,-99.9,29.91,North,32767,-999.0,7.0,255,-99.99,,,0.00,Wunderground v.1.13,2013-05-08 22:40:00,
2013-05-08 15:45:00,-999.9,-99.9,29.91,North,32767,-999.0,7.0,255,-99.99,,,0.00,Wunderground v.1.13,2013-05-08 22:45:00,
2013-05-08 15:50:00,-999.9,-99.9,29.91,North,32767,-999.0,7.0,255,-99.99,,,0.00,Wunderground v.1.13,2013-05-08 22:50:00,
2013-05-08 15:56:00,-999.9,-99.9,29.91,North,32767,-999.0,7.0,255,-99.99,,,0.00,Wunderground v.1.13,2013-05-08 22:56:00,
2013-05-08 16:02:00,-999.9,-99.9,29.91,SW,220,6.0,7.0,255,-99.99,,,0.00,Wunderground v.1.13,2013-05-08 23:02:00,
2013-05-08 16:08:00,-999.9,-99.9,29.91,SW,220,6.0,6.0,255,-99.99,,,0.00,Wunderground v.1.13,2013-05-08 23:08:00,
2013-05-08 16:13:00,-999.9,-99.9,29.91,North,32767,-999.0,6.0,255,-99.99,,,0.00,Wunderground v.1.13,2013-05-08 23:13:00,
2013-05-08 16:19:00,-999.9,-99.9,29.91,North,32767,-999.0,6.0,255,-99.99,,,0.00,Wunderground v.1.13,2013-05-08 23:19:00,
2013-05-08 16:24:00,-999.9,-99.9,29.91,North,32767,-999.0,6.0,255,-99.99,,,0.00,Wunderground v.1.13,2013-05-08 23:24:00,
2013-05-08 16:29:00,-999.9,-99.9,29.91,North,32767,-999.0,6.0,255,-99.99,,,0.00,Wunderground v.1.13,2013-05-08 23:29:00,
2013-05-08 16:34:00,-999.9,-99.9,29.91,North,32767,-999.0,6.0,255,-99.99,,,0.00,Wunderground v.1.13,2013-05-08 23:34:00,
2013-05-08 16:40:00,-999.9,-99.9,29.91,North,32767,-999.0,6.0,255,-99.99,,,0.00,Wunderground v.1.13,2013-05-08 23:40:00,
2013-05-08 16:46:00,-999.9,-99.9,29.91,North,32767,-999.0,6.0,255,-99.99,,,0.00,Wunderground v.1.13,2013-05-08 23:46:00,
2013-05-08 16:51:00,-999.9,-99.9,29.91,North,32767,-999.0,6.0,255,-99.99,,,0.00,Wunderground v.1.13,2013-05-08 23:51:00,
2013-05-08 16:57:00,-999.9,-99.9,29.91,North,32767,-999.0,6.0,255,-99.99,,,0.00,Wunderground v.1.13,2013-05-08 23:57:00,
2013-05-08 17:03:00,-999.9,-99.9,29.91,North,32767,-999.0,6.0,255,-99.99,,,0.00,Wunderground v.1.13,2013-05-09 00:03:00,
2013-05-08 17:09:00,-999.9,-99.9,29.91,North,32767,-999.0,0.0,255,-99.99,,,0.00,Wunderground v.1.13,2013-05-09 00:09:00,
2013-05-08 17:14:00,-999.9,-99.9,29.91,North,32767,-999.0,0.0,255,-99.99,,,0.00,Wunderground v.1.13,2013-05-09 00:14:00,
2013-05-08 17:19:00,-999.9,-99.9,29.92,South,171,5.0,5.0,255,0.00,,,0.00,Wunderground v.1.13,2013-05-09 00:19:00,
2013-05-08 17:25:00,-999.9,-99.9,29.92,South,171,5.0,5.0,255,0.00,,,0.00,Wunderground v.1.13,2013-05-09 00:25:00,
2013-05-08 17:30:00,-999.9,-99.9,29.92,WSW,244,6.0,6.0,255,0.00,,,0.00,Wunderground v.1.13,2013-05-09 00:30:00,
2013-05-08 17:35:00,-999.9,-99.9,29.92,SSW,200,8.0,8.0,255,0.00,,,0.00,Wunderground v.1.13,2013-05-09 00:35:00,
2013-05-08 17:41:00,-999.9,-99.9,29.92,SSW,200,8.0,8.0,255,0.00,,,0.00,Wunderground v.1.13,2013-05-09 00:41:00,
2013-05-08 17:46:00,-999.9,-99.9,29.93,North,32767,-999.0,0.0,255,-99.99,,,0.00,Wunderground v.1.13,2013-05-09 00:46:00,
2013-05-08 17:51:00,-999.9,-99.9,29.93,North,32767,-999.0,0.0,255,-99.99,,,0.00,Wunderground v.1.13,2013-05-09 00:51:00,
2013-05-08 17:57:00,-999.9,-99.9,29.93,North,32767,-999.0,0.0,255,-99.99,,,0.00,Wunderground v.1.13,2013-05-09 00:57:00,
2013-05-08 18:03:00,-999.9,-99.9,29.93,North,32767,-999.0,0.0,255,-99.99,,,0.00,Wunderground v.1.13,2013-05-09 01:03:00,
2013-05-08 18:08:00,-999.9,-99.9,29.93,North,32767,-999.0,0.0,255,-99.99,,,0.00,Wunderground v.1.13,2013-05-09 01:08:00,
2013-05-08 18:14:00,-999.9,-99.9,29.93,North,32767,-999.0,0.0,255,-99.99,,,0.00,Wunderground v.1.13,2013-05-09 01:14:00,
2013-05-08 18:19:00,-999.9,-99.9,29.92,North,32767,-999.0,0.0,255,-99.99,,,0.00,Wunderground v.1.13,2013-05-09 01:19:00,
2013-05-08 18:24:00,-999.9,-99.9,29.92,North,32767,-999.0,0.0,255,-99.99,,,0.00,Wunderground v.1.13,2013-05-09 01:24:00,
2013-05-08 18:29:00,-999.9,-99.9,29.92,North,32767,-999.0,0.0,255,-99.99,,,0.00,Wunderground v.1.13,2013-05-09 01:29:00,
2013-05-08 18:34:00,-999.9,-99.9,29.92,North,32767,-999.0,0.0,255,-99.99,,,0.00,Wunderground v.1.13,2013-05-09 01:34:00,
2013-05-08 18:40:00,-999.9,-99.9,29.92,North,32767,-999.0,0.0,255,-99.99,,,0.00,Wunderground v.1.13,2013-05-09 01:40:00,
2013-05-08 18:45:00,-999.9,-99.9,29.92,North,32767,-999.0,0.0,255,-99.99,,,0.00,Wunderground v.1.13,2013-05-09 01:45:00,
2013-05-08 18:50:00,-999.9,-99.9,29.92,WSW,256,8.0,8.0,255,-99.99,,,0.00,Wunderground v.1.13,2013-05-09 01:50:00,
2013-05-08 18:55:00,-999.9,-99.9,29.92,SW,224,6.0,6.0,255,0.00,,,0.00,Wunderground v.1.13,2013-05-09 01:55:00,
2013-05-08 19:00:00,-999.9,-99.9,29.92,West,260,3.0,3.0,255,0.00,,,0.00,Wunderground v.1.13,2013-05-09 02:00:00,
2013-05-08 19:05:00,-999.9,-99.9,29.92,WSW,254,8.0,8.0,255,0.00,,,0.00,Wunderground v.1.13,2013-05-09 02:05:00,
2013-05-08 19:11:00,-999.9,-99.9,29.92,WSW,254,8.0,8.0,255,0.00,,,0.00,Wunderground v.1.13,2013-05-09 02:11:00,
2013-05-08 19:17:00,-999.9,-99.9,29.89,North,32767,-999.0,6.0,255,-99.99,,,0.00,Wunderground v.1.13,2013-05-09 02:17:00,
2013-05-08 19:22:00,-999.9,-99.9,29.89,North,32767,-999.0,6.0,255,-99.99,,,0.00,Wunderground v.1.13,2013-05-09 02:22:00,
2013-05-08 19:27:00,-999.9,-99.9,29.89,North,32767,-999.0,6.0,255,-99.99,,,0.00,Wunderground v.1.13,2013-05-09 02:27:00,
2013-05-08 19:32:00,-999.9,-99.9,29.89,North,32767,-999.0,6.0,255,-99.99,,,0.00,Wunderground v.1.13,2013-05-09 02:32:00,
2013-05-08 19:38:00,-999.9,-99.9,29.89,North,32767,-999.0,6.0,255,-99.99,,,0.00,Wunderground v.1.13,2013-05-09 02:38:00,
2013-05-08 19:43:00,-999.9,-99.9,29.89,North,32767,-999.0,6.0,255,-99.99,,,0.00,Wunderground v.1.13,2013-05-09 02:43:00,
2013-05-08 19:48:00,-999.9,-99.9,29.89,WSW,244,6.0,6.0,255,-99.99,,,0.00,Wunderground v.1.13,2013-05-09 02:48:00,
2013-05-08 19:53:00,-999.9,-99.9,29.89,SW,224,2.0,6.0,255,0.00,,,0.00,Wunderground v.1.13,2013-05-09 02:53:00,
2013-05-08 19:58:00,-999.9,-99.9,29.89,SSW,205,3.0,6.0,255,0.00,,,0.00,Wunderground v.1.13,2013-05-09 02:58:00,
2013-05-08 20:03:00,-999.9,-99.9,29.90,West,263,8.0,8.0,255,0.00,,,0.00,Wunderground v.1.13,2013-05-09 03:03:00,
2013-05-08 20:09:00,-999.9,-99.9,29.90,SW,219,3.0,3.0,255,0.00,,,0.00,Wunderground v.1.13,2013-05-09 03:09:00,
2013-05-08 20:15:00,-999.9,-99.9,29.88,WSW,241,2.0,3.0,255,0.00,,,0.00,Wunderground v.1.13,2013-05-09 03:15:00,
2013-05-08 20:20:00,-999.9,-99.9,29.88,SW,224,6.0,6.0,255,0.00,,,0.00,Wunderground v.1.13,2013-05-09 03:20:00,
2013-05-08 20:26:00,-999.9,-99.9,29.88,WSW,241,2.0,6.0,255,0.00,,,0.00,Wunderground v.1.13,2013-05-09 03:26:00,
2013-05-08 20:32:00,-999.9,-99.9,29.89,WSW,241,2.0,3.0,255,0.00,,,0.00,Wunderground v.1.13,2013-05-09 03:32:00,
2013-05-08 20:37:00,-999.9,-99.9,29.89,SW,224,3.0,3.0,255,0.00,,,0.00,Wunderground v.1.13,2013-05-09 03:37:00,
2013-05-08 20:42:00,-999.9,-99.9,29.89,SW,220,1.0,3.0,255,0.00,,,0.00,Wunderground v.1.13,2013-05-09 03:42:00,
2013-05-08 20:48:00,-999.9,-99.9,29.89,SSW,209,6.0,6.0,255,0.00,,,0.00,Wunderground v.1.13,2013-05-09 03:48:00,
2013-05-08 20:53:00,-999.9,-99.9,29.89,SW,232,1.0,6.0,255,0.00,,,0.00,Wunderground v.1.13,2013-05-09 03:53:00,
2013-05-08 20:58:00,-999.9,-99.9,29.89,SW,232,1.0,3.0,255,0.00,,,0.00,Wunderground v.1.13,2013-05-09 03:58:00,
2013-05-08 21:01:00,-999.9,-99.9,29.90,SW,232,1.0,3.0,255,0.00,,,0.00,Wunderground v.1.13,2013-05-09 04:01:00,
2013-05-08 21:02:00,-999.9,-99.9,29.90,North,32767,-999.0,3.0,255,-99.99,,,0.00,Wunderground v.1.13,2013-05-09 04:02:00,
2013-05-08 21:05:00,-999.9,-99.9,29.90,North,32767,-999.0,1.0,255,-99.99,,,0.00,Wunderground v.1.13,2013-05-09 04:05:00,
2013-05-08 21:07:00,-999.9,-99.9,29.90,North,32767,-999.0,1.0,255,-99.99,,,0.00,Wunderground v.1.13,2013-05-09 04:07:00,
2013-05-08 21:08:00,-999.9,-99.9,29.90,North,32767,-999.0,1.0,255,-99.99,,,0.00,Wunderground v.1.13,2013-05-09 04:08:00,
2013-05-08 21:14:00,-999.9,-99.9,29.90,North,32767,-999.0,1.0,255,-99.99,,,0.00,Wunderground v.1.13,2013-05-09 04:14:00,
2013-05-08 21:20:00,-999.9,-99.9,29.90,North,32767,-999.0,1.0,255,-99.99,,,0.00,Wunderground v.1.13,2013-05-09 04:20:00,
2013-05-08 21:25:00,-999.9,-99.9,29.90,North,32767,-999.0,1.0,255,-99.99,,,0.00,Wunderground v.1.13,2013-05-09 04:25:00,
2013-05-08 21:30:00,-999.9,-99.9,29.90,North,32767,-999.0,1.0,255,-99.99,,,0.00,Wunderground v.1.13,2013-05-09 04:30:00,
2013-05-08 21:35:00,-999.9,-99.9,29.90,North,32767,-999.0,1.0,255,-99.99,,,0.00,Wunderground v.1.13,2013-05-09 04:35:00,
2013-05-08 21:40:00,-999.9,-99.9,29.90,North,32767,-999.0,1.0,255,-99.99,,,0.00,Wunderground v.1.13,2013-05-09 04:40:00,
2013-05-08 21:46:00,-999.9,-99.9,29.90,North,32767,-999.0,1.0,255,-99.99,,,0.00,Wunderground v.1.13,2013-05-09 04:46:00,
2013-05-08 21:51:00,-999.9,-99.9,29.90,North,32767,-999.0,1.0,255,-99.99,,,0.00,Wunderground v.1.13,2013-05-09 04:51:00,
2013-05-08 21:56:00,-999.9,-99.9,29.90,North,32767,-999.0,1.0,255,-99.99,,,0.00,Wunderground v.1.13,2013-05-09 04:56:00,
2013-05-08 22:01:00,-999.9,-99.9,29.91,North,32767,-999.0,1.0,255,-99.99,,,0.00,Wunderground v.1.13,2013-05-09 05:01:00,
2013-05-08 22:07:00,-999.9,-99.9,29.91,North,32767,-999.0,0.0,255,-99.99,,,0.00,Wunderground v.1.13,2013-05-09 05:07:00,
2013-05-08 22:12:00,-999.9,-99.9,29.91,North,32767,-999.0,0.0,255,-99.99,,,0.00,Wunderground v.1.13,2013-05-09 05:12:00,
2013-05-08 22:17:00,-999.9,-99.9,29.92,North,32767,-999.0,0.0,255,-99.99,,,0.00,Wunderground v.1.13,2013-05-09 05:17:00,
2013-05-08 22:23:00,-999.9,-99.9,29.92,North,32767,-999.0,0.0,255,-99.99,,,0.00,Wunderground v.1.13,2013-05-09 05:23:00,
2013-05-08 22:28:00,-999.9,-99.9,29.92,North,32767,-999.0,0.0,255,-99.99,,,0.00,Wunderground v.1.13,2013-05-09 05:28:00,
2013-05-08 22:33:00,-999.9,-99.9,29.93,North,32767,-999.0,0.0,255,-99.99,,,0.00,Wunderground v.1.13,2013-05-09 05:33:00,
2013-05-08 22:38:00,-999.9,-99.9,29.93,North,32767,-999.0,0.0,255,-99.99,,,0.00,Wunderground v.1.13,2013-05-09 05:38:00,
2013-05-08 22:43:00,-999.9,-99.9,29.93,South,174,0.0,0.0,255,-99.99,,,0.00,Wunderground v.1.13,2013-05-09 05:43:00,
2013-05-08 22:49:00,-999.9,-99.9,29.93,SSE,167,1.0,1.0,255,0.00,,,0.00,Wunderground v.1.13,2013-05-09 05:49:00,
2013-05-08 22:54:00,-999.9,-99.9,29.93,SSW,209,3.0,3.0,255,0.00,,,0.00,Wunderground v.1.13,2013-05-09 05:54:00,
2013-05-08 23:00:00,-999.9,-99.9,29.93,SSE,168,0.0,0.0,255,0.00,,,0.00,Wunderground v.1.13,2013-05-09 06:00:00,
2013-05-08 23:05:00,-999.9,-99.9,29.93,SW,216,1.0,3.0,255,0.00,,,0.00,Wunderground v.1.13,2013-05-09 06:05:00,
2013-05-08 23:11:00,-999.9,-99.9,29.93,SSW,209,0.0,3.0,255,0.00,,,0.00,Wunderground v.1.13,2013-05-09 06:11:00,
2013-05-08 23:16:00,-999.9,-99.9,29.88,SSW,209,2.0,3.0,255,0.00,,,0.00,Wunderground v.1.13,2013-05-09 06:16:00,
2013-05-08 23:21:00,-999.9,-99.9,29.88,SSW,209,2.0,3.0,255,0.00,,,0.00,Wunderground v.1.13,2013-05-09 06:21:00,
2013-05-08 23:26:00,-999.9,-99.9,29.88,SSW,208,1.0,3.0,255,0.00,,,0.00,Wunderground v.1.13,2013-05-09 06:26:00,
2013-05-08 23:32:00,-999.9,-99.9,29.88,SSW,208,1.0,3.0,255,0.00,,,0.00,Wunderground v.1.13,2013-05-09 06:32:00,
2013-05-08 23:37:00,-999.9,-99.9,29.88,SSW,208,0.0,3.0,255,0.00,,,0.00,Wunderground v.1.13,2013-05-09 06:37:00,
2013-05-08 23:43:00,-999.9,-99.9,29.88,SSW,206,0.0,3.0,255,0.00,,,0.00,Wunderground v.1.13,2013-05-09 06:43:00,
2013-05-08 23:48:00,-999.9,-99.9,29.88,SSW,206,0.0,3.0,255,0.00,,,0.00,Wunderground v.1.13,2013-05-09 06:48:00,
2013-05-08 23:54:00,-999.9,-99.9,29.88,SSW,206,0.0,3.0,255,0.00,,,0.00,Wunderground v.1.13,2013-05-09 06:54:00,